createdAt,value
2018-09-26T00:01:39.562Z,96498.32
2018-09-26T00:04:05.963Z,96495.39
2018-09-26T00:06:32.325Z,96497.59
2018-09-26T00:08:58.725Z,96491.70
2018-09-26T00:11:25.097Z,96488.80
2018-09-26T00:13:51.468Z,96487.13
2018-09-26T00:16:17.830Z,96481.09
2018-09-26T00:18:44.249Z,96488.06
2018-09-26T00:21:11.543Z,96487.70
2018-09-26T00:23:37.892Z,96487.31
2018-09-26T00:26:04.278Z,96495.12
2018-09-26T00:28:30.642Z,96495.06
2018-09-26T00:30:56.991Z,96499.88
2018-09-26T00:33:23.339Z,96500.33
2018-09-26T00:35:49.972Z,96500.33
2018-09-26T00:38:16.393Z,96493.23
2018-09-26T00:40:42.792Z,96501.34
2018-09-26T00:43:09.182Z,96501.42
2018-09-26T00:45:35.543Z,96495.09
2018-09-26T00:48:01.995Z,96495.53
2018-09-26T00:50:28.360Z,96494.30
2018-09-26T00:52:54.717Z,96498.65
2018-09-26T00:55:21.151Z,96503.41
2018-09-26T00:57:47.520Z,96502.98
2018-09-26T01:00:13.874Z,96500.50
2018-09-26T01:02:40.227Z,96499.24
2018-09-26T01:05:06.588Z,96502.33
2018-09-26T01:07:32.991Z,96498.97
2018-09-26T01:09:59.353Z,96499.51
2018-09-26T01:12:25.811Z,96499.28
2018-09-26T01:14:52.192Z,96505.30
2018-09-26T01:17:18.559Z,96499.81
2018-09-26T01:19:44.924Z,96505.77
2018-09-26T01:22:11.311Z,96506.53
2018-09-26T01:24:37.687Z,96509.13
2018-09-26T01:27:04.083Z,96515.44
2018-09-26T01:29:30.912Z,96511.78
2018-09-26T01:31:57.269Z,96512.66
2018-09-26T01:34:23.699Z,96511.89
2018-09-26T01:36:50.077Z,96511.73
2018-09-26T01:39:16.433Z,96515.89
2018-09-26T01:41:42.847Z,96506.56
2018-09-26T01:44:09.199Z,96507.14
2018-09-26T01:46:35.580Z,96511.17
2018-09-26T01:49:01.945Z,96512.98
2018-09-26T01:51:28.321Z,96508.94
2018-09-26T01:53:54.680Z,96511.33
2018-09-26T01:56:21.088Z,96513.28
2018-09-26T01:58:47.437Z,96511.77
2018-09-26T02:01:13.820Z,96511.09
2018-09-26T02:03:40.227Z,96513.38
2018-09-26T02:06:06.608Z,96509.56
2018-09-26T02:08:33.016Z,96511.52
2018-09-26T02:10:59.459Z,96511.67
2018-09-26T02:13:26.012Z,96519.63
2018-09-26T02:15:52.421Z,96517.47
2018-09-26T02:18:18.893Z,96510.07
2018-09-26T02:20:45.310Z,96512.94
2018-09-26T02:23:11.666Z,96506.67
2018-09-26T02:25:38.021Z,96509.79
2018-09-26T02:28:04.378Z,96509.23
2018-09-26T02:30:30.752Z,96512.58
2018-09-26T02:32:57.110Z,96507.67
2018-09-26T02:35:23.652Z,96505.05
2018-09-26T02:37:50.036Z,96507.55
2018-09-26T02:40:16.395Z,96499.88
2018-09-26T02:42:42.763Z,96495.70
2018-09-26T02:45:09.153Z,96502.05
2018-09-26T02:47:35.531Z,96507.27
2018-09-26T02:50:01.893Z,96509.36
2018-09-26T02:52:28.247Z,96506.05
2018-09-26T02:54:54.591Z,96515.47
2018-09-26T02:57:20.978Z,96511.94
2018-09-26T02:59:47.349Z,96509.83
2018-09-26T03:02:13.739Z,96510.36
2018-09-26T03:04:40.111Z,96506.63
2018-09-26T03:07:06.640Z,96508.92
2018-09-26T03:09:33.033Z,96507.07
2018-09-26T03:11:59.415Z,96500.98
2018-09-26T03:14:25.908Z,96492.53
2018-09-26T03:16:52.286Z,96501.61
2018-09-26T03:19:18.725Z,96501.09
2018-09-26T03:21:45.152Z,96506.00
2018-09-26T03:24:11.548Z,96505.20
2018-09-26T03:26:37.962Z,96506.49
2018-09-26T03:29:04.342Z,96509.05
2018-09-26T03:31:30.716Z,96513.47
2018-09-26T03:33:57.101Z,96514.70
2018-09-26T03:36:23.461Z,96505.33
2018-09-26T03:38:49.869Z,96506.85
2018-09-26T03:41:16.203Z,96510.25
2018-09-26T03:43:42.577Z,96512.08
2018-09-26T03:46:08.931Z,96515.36
2018-09-26T03:48:35.394Z,96513.62
2018-09-26T03:51:01.776Z,96509.36
2018-09-26T03:53:28.104Z,96509.61
2018-09-26T03:55:54.426Z,96509.71
2018-09-26T03:58:20.760Z,96509.83
2018-09-26T04:00:47.149Z,96515.66
2018-09-26T04:03:13.497Z,96516.02
2018-09-26T04:05:39.884Z,96519.74
2018-09-26T04:08:06.232Z,96524.30
2018-09-26T04:10:32.574Z,96525.80
2018-09-26T04:12:59.039Z,96526.61
2018-09-26T04:15:25.334Z,96526.94
2018-09-26T04:17:51.680Z,96531.68
2018-09-26T04:20:18.124Z,96530.40
2018-09-26T04:22:44.457Z,96538.98
2018-09-26T04:25:10.804Z,96550.92
2018-09-26T04:27:37.543Z,96550.84
2018-09-26T04:30:03.943Z,96556.09
2018-09-26T04:32:30.465Z,96561.09
2018-09-26T04:34:56.810Z,96563.13
2018-09-26T04:37:23.141Z,96570.63
2018-09-26T04:39:49.511Z,96572.13
2018-09-26T04:42:15.861Z,96567.05
2018-09-26T04:44:42.205Z,96567.91
2018-09-26T04:47:08.536Z,96568.70
2018-09-26T04:49:34.880Z,96569.85
2018-09-26T04:52:01.299Z,96574.45
2018-09-26T04:54:27.679Z,96579.98
2018-09-26T04:56:54.009Z,96578.47
2018-09-26T04:59:20.355Z,96582.18
2018-09-26T05:01:46.720Z,96576.57
2018-09-26T05:04:13.110Z,96581.09
2018-09-26T05:06:39.439Z,96585.53
2018-09-26T05:09:05.824Z,96584.35
2018-09-26T05:11:32.204Z,96595.42
2018-09-26T05:13:58.539Z,96598.16
2018-09-26T05:16:24.891Z,96598.91
2018-09-26T05:18:51.296Z,96598.72
2018-09-26T05:21:17.668Z,96592.94
2018-09-26T05:23:44.057Z,96598.84
2018-09-26T05:26:10.473Z,96595.44
2018-09-26T05:28:36.842Z,96596.91
2018-09-26T05:31:03.251Z,96596.33
2018-09-26T05:33:29.598Z,96602.83
2018-09-26T05:35:55.928Z,96604.73
2018-09-26T05:38:22.278Z,96608.55
2018-09-26T05:40:48.652Z,96611.59
2018-09-26T05:43:15.140Z,96614.20
2018-09-26T05:45:41.543Z,96609.70
2018-09-26T05:48:08.077Z,96618.19
2018-09-26T05:50:34.453Z,96617.69
2018-09-26T05:53:00.840Z,96615.95
2018-09-26T05:55:27.184Z,96618.67
2018-09-26T05:57:53.535Z,96617.56
2018-09-26T06:00:19.904Z,96621.33
2018-09-26T06:02:46.365Z,96629.02
2018-09-26T06:05:12.874Z,96626.09
2018-09-26T06:07:39.253Z,96629.61
2018-09-26T06:10:05.628Z,96635.98
2018-09-26T06:12:32.107Z,96637.86
2018-09-26T06:14:59.369Z,96638.08
2018-09-26T06:17:25.855Z,96643.12
2018-09-26T06:19:52.189Z,96651.73
2018-09-26T06:22:18.574Z,96644.45
2018-09-26T06:24:45.013Z,96641.29
2018-09-26T06:27:11.312Z,96642.55
2018-09-26T06:29:37.704Z,96648.88
2018-09-26T06:32:04.094Z,96646.84
2018-09-26T06:34:30.415Z,96648.20
2018-09-26T06:36:56.754Z,96646.91
2018-09-26T06:39:23.104Z,96651.16
2018-09-26T06:41:49.439Z,96644.28
2018-09-26T06:44:15.819Z,96643.44
2018-09-26T06:46:42.208Z,96645.35
2018-09-26T06:49:08.636Z,96654.52
2018-09-26T06:51:35.075Z,96656.66
2018-09-26T06:54:01.516Z,96663.45
2018-09-26T06:56:27.885Z,96663.51
2018-09-26T06:58:54.294Z,96664.23
2018-09-26T07:01:20.752Z,96665.33
2018-09-26T07:03:47.185Z,96660.58
2018-09-26T07:06:13.620Z,96657.95
2018-09-26T07:08:40.023Z,96661.73
2018-09-26T07:11:06.370Z,96663.86
2018-09-26T07:13:32.830Z,96668.00
2018-09-26T07:15:59.315Z,96671.52
2018-09-26T07:18:26.809Z,96665.41
2018-09-26T07:20:53.215Z,96650.88
2018-09-26T07:23:19.647Z,96655.11
2018-09-26T07:25:46.177Z,96653.76
2018-09-26T07:28:12.575Z,96658.23
2018-09-26T07:30:39.070Z,96648.67
2018-09-26T07:33:05.504Z,96644.12
2018-09-26T07:35:32.028Z,96641.88
2018-09-26T07:37:58.639Z,96648.03
2018-09-26T07:40:25.165Z,96652.22
2018-09-26T07:42:51.552Z,96649.22
2018-09-26T07:45:18.081Z,96650.77
2018-09-26T07:47:44.606Z,96643.23
2018-09-26T07:50:11.065Z,96644.88
2018-09-26T07:52:37.471Z,96642.55
2018-09-26T07:55:03.870Z,96650.28
2018-09-26T07:57:30.316Z,96645.47
2018-09-26T07:59:56.855Z,96644.19
2018-09-26T08:02:23.221Z,96656.98
2018-09-26T08:04:49.664Z,96646.09
2018-09-26T08:07:16.102Z,96642.13
2018-09-26T08:09:42.604Z,96635.66
2018-09-26T08:12:09.036Z,96643.37
2018-09-26T08:14:35.576Z,96645.81
2018-09-26T08:17:01.937Z,96641.09
2018-09-26T08:19:28.370Z,96640.25
2018-09-26T08:21:54.781Z,96641.19
2018-09-26T08:24:21.250Z,96639.06
2018-09-26T08:26:47.795Z,96635.88
2018-09-26T08:29:14.169Z,96636.71
2018-09-26T08:31:40.604Z,96646.61
2018-09-26T08:34:06.980Z,96644.53
2018-09-26T08:36:33.338Z,96652.34
2018-09-26T08:38:59.717Z,96648.96
2018-09-26T08:41:26.147Z,96646.64
2018-09-26T08:43:52.538Z,96646.77
2018-09-26T08:46:18.902Z,96642.28
2018-09-26T08:48:45.424Z,96648.18
2018-09-26T08:51:12.371Z,96641.09
2018-09-26T08:53:38.891Z,96641.70
2018-09-26T08:56:05.368Z,96633.38
2018-09-26T08:58:31.721Z,96642.83
2018-09-26T09:00:58.138Z,96639.02
2018-09-26T09:03:24.509Z,96644.22
2018-09-26T09:05:50.928Z,96633.23
2018-09-26T09:08:17.311Z,96637.30
2018-09-26T09:10:43.808Z,96617.39
2018-09-26T09:13:10.268Z,96639.05
2018-09-26T09:15:36.768Z,96632.30
2018-09-26T09:18:03.240Z,96626.63
2018-09-26T09:20:29.711Z,96626.56
2018-09-26T09:22:56.065Z,96618.89
2018-09-26T09:25:22.465Z,96631.56
2018-09-26T09:27:48.889Z,96639.35
2018-09-26T09:30:15.398Z,96633.39
2018-09-26T09:32:41.833Z,96631.78
2018-09-26T09:35:08.590Z,96630.64
2018-09-26T09:37:35.106Z,96643.22
2018-09-26T09:40:01.966Z,96638.31
2018-09-26T09:42:28.388Z,96639.22
2018-09-26T09:44:54.774Z,96645.95
2018-09-26T09:47:21.106Z,96640.51
2018-09-26T09:49:47.513Z,96635.67
2018-09-26T09:52:13.903Z,96628.16
2018-09-26T09:54:40.343Z,96624.78
2018-09-26T09:57:06.702Z,96628.06
2018-09-26T09:59:33.173Z,96626.13
2018-09-26T10:01:59.595Z,96619.07
2018-09-26T10:04:26.072Z,96617.49
2018-09-26T10:06:52.509Z,96618.50
2018-09-26T10:09:18.873Z,96620.92
2018-09-26T10:11:45.271Z,96628.28
2018-09-26T10:14:11.637Z,96629.23
2018-09-26T10:16:38.037Z,96624.37
2018-09-26T10:19:04.695Z,96622.81
2018-09-26T10:21:31.205Z,96627.08
2018-09-26T10:23:57.636Z,96632.13
2018-09-26T10:26:24.204Z,96629.80
2018-09-26T10:28:50.616Z,96632.87
2018-09-26T10:31:17.100Z,96624.11
2018-09-26T10:33:43.686Z,96623.84
2018-09-26T10:36:10.083Z,96624.29
2018-09-26T10:38:36.474Z,96617.87
2018-09-26T10:41:02.937Z,96627.32
2018-09-26T10:43:29.312Z,96626.31
2018-09-26T10:45:55.794Z,96622.62
2018-09-26T10:48:22.173Z,96614.47
2018-09-26T10:50:48.545Z,96622.24
2018-09-26T10:53:14.875Z,96615.31
2018-09-26T10:55:41.295Z,96607.33
2018-09-26T10:58:07.737Z,96611.41
2018-09-26T11:00:34.273Z,96602.47
2018-09-26T11:03:00.775Z,96617.48
2018-09-26T11:05:27.308Z,96617.09
2018-09-26T11:07:53.739Z,96609.45
2018-09-26T11:10:20.251Z,96602.97
2018-09-26T11:12:46.721Z,96594.28
2018-09-26T11:15:13.087Z,96601.13
2018-09-26T11:17:39.494Z,96601.13
2018-09-26T11:20:08.982Z,96581.63
2018-09-26T11:22:36.597Z,96595.92
2018-09-26T11:25:04.706Z,96596.31
2018-09-26T11:27:33.920Z,96589.61
2018-09-26T11:30:01.457Z,96591.35
2018-09-26T11:32:29.229Z,96597.59
2018-09-26T11:34:55.928Z,96592.47
2018-09-26T11:37:22.333Z,96585.14
2018-09-26T11:39:49.017Z,96584.13
2018-09-26T11:42:15.645Z,96575.72
2018-09-26T11:44:43.009Z,96580.84
2018-09-26T11:47:09.836Z,96580.28
2018-09-26T11:49:36.397Z,96573.83
2018-09-26T11:52:03.170Z,96572.02
2018-09-26T11:54:29.879Z,96564.34
2018-09-26T11:56:56.440Z,96564.20
2018-09-26T11:59:22.849Z,96557.92
2018-09-26T12:01:49.248Z,96568.88
2018-09-26T12:04:15.705Z,96567.30
2018-09-26T12:06:42.146Z,96561.50
2018-09-26T12:09:08.548Z,96553.77
2018-09-26T12:11:34.988Z,96555.13
2018-09-26T12:14:01.378Z,96557.93
2018-09-26T12:16:27.720Z,96552.77
2018-09-26T12:18:54.122Z,96549.11
2018-09-26T12:21:30.353Z,96549.31
2018-09-26T12:23:46.976Z,96544.25
2018-09-26T12:26:13.384Z,96546.34
2018-09-26T12:28:39.834Z,96544.15
2018-09-26T12:31:08.259Z,96534.94
2018-09-26T12:33:34.768Z,96528.94
2018-09-26T12:36:01.246Z,96528.84
2018-09-26T12:38:27.860Z,96539.72
2018-09-26T12:40:54.361Z,96535.30
2018-09-26T12:43:22.675Z,96534.38
2018-09-26T12:45:50.072Z,96537.39
2018-09-26T12:48:17.031Z,96539.58
2018-09-26T12:50:45.744Z,96545.20
2018-09-26T12:53:12.229Z,96529.05
2018-09-26T12:55:38.626Z,96534.22
2018-09-26T12:58:05.079Z,96540.81
2018-09-26T13:00:31.556Z,96544.47
2018-09-26T13:02:58.117Z,96545.04
2018-09-26T13:05:24.518Z,96545.38
2018-09-26T13:07:50.923Z,96543.08
2018-09-26T13:10:17.443Z,96535.78
2018-09-26T13:12:43.953Z,96543.39
2018-09-26T13:15:10.384Z,96528.47
2018-09-26T13:17:36.756Z,96543.66
2018-09-26T13:20:03.189Z,96539.06
2018-09-26T13:22:29.568Z,96531.59
2018-09-26T13:24:55.997Z,96524.45
2018-09-26T13:27:22.384Z,96533.94
2018-09-26T13:29:49.172Z,96522.70
2018-09-26T13:32:15.859Z,96527.87
2018-09-26T13:34:42.575Z,96525.05
2018-09-26T13:37:08.974Z,96529.80
2018-09-26T13:39:35.371Z,96523.53
2018-09-26T13:42:01.745Z,96528.58
2018-09-26T13:44:28.096Z,96523.46
2018-09-26T13:46:54.594Z,96525.59
2018-09-26T13:49:21.955Z,96524.02
2018-09-26T13:51:48.394Z,96516.35
2018-09-26T13:54:14.790Z,96512.03
2018-09-26T13:56:41.149Z,96512.94
2018-09-26T13:59:07.540Z,96512.34
2018-09-26T14:01:33.972Z,96509.34
2018-09-26T14:04:00.290Z,96513.39
2018-09-26T14:06:26.779Z,96516.22
2018-09-26T14:08:53.235Z,96516.77
2018-09-26T14:11:19.679Z,96513.59
2018-09-26T14:13:46.045Z,96520.64
2018-09-26T14:16:12.421Z,96518.02
2018-09-26T14:18:38.765Z,96510.21
2018-09-26T14:21:05.242Z,96509.09
2018-09-26T14:23:31.666Z,96512.66
2018-09-26T14:25:58.046Z,96502.41
2018-09-26T14:28:24.837Z,96508.13
2018-09-26T14:30:51.313Z,96513.88
2018-09-26T14:33:17.684Z,96514.33
2018-09-26T14:35:44.016Z,96510.32
2018-09-26T14:38:10.513Z,96507.56
2018-09-26T14:40:36.858Z,96517.81
2018-09-26T14:43:03.270Z,96514.36
2018-09-26T14:45:29.658Z,96511.13
2018-09-26T14:47:56.030Z,96516.73
2018-09-26T14:50:22.456Z,96514.99
2018-09-26T14:52:48.823Z,96526.11
2018-09-26T14:55:15.176Z,96529.06
2018-09-26T14:57:41.582Z,96526.42
2018-09-26T15:00:08.005Z,96531.09
2018-09-26T15:02:34.364Z,96538.86
2018-09-26T15:05:00.812Z,96540.18
2018-09-26T15:07:27.202Z,96541.55
2018-09-26T15:09:53.560Z,96547.44
2018-09-26T15:12:19.978Z,96540.38
2018-09-26T15:14:46.329Z,96543.20
2018-09-26T15:17:12.698Z,96541.42
2018-09-26T15:19:39.058Z,96544.06
2018-09-26T15:22:05.407Z,96546.22
2018-09-26T15:24:31.761Z,96541.27
2018-09-26T15:26:58.236Z,96546.89
2018-09-26T15:29:24.588Z,96552.25
2018-09-26T15:31:51.011Z,96553.61
2018-09-26T15:34:17.457Z,96548.00
2018-09-26T15:36:43.968Z,96546.94
2018-09-26T15:39:10.328Z,96549.40
2018-09-26T15:41:36.758Z,96551.91
2018-09-26T15:44:03.087Z,96547.95
2018-09-26T15:46:29.463Z,96549.24
2018-09-26T15:48:55.899Z,96557.13
2018-09-26T15:51:22.255Z,96556.17
2018-09-26T15:53:48.600Z,96560.16
2018-09-26T15:56:15.025Z,96562.06
2018-09-26T15:58:41.393Z,96563.93
2018-09-26T16:01:07.748Z,96561.90
2018-09-26T16:03:34.180Z,96561.58
2018-09-26T16:06:00.545Z,96568.72
2018-09-26T16:08:26.921Z,96574.00
2018-09-26T16:10:53.303Z,96576.28
2018-09-26T16:13:19.710Z,96580.81
2018-09-26T16:15:46.075Z,96583.42
2018-09-26T16:18:12.568Z,96583.86
2018-09-26T16:20:38.886Z,96584.34
2018-09-26T16:23:05.332Z,96591.86
2018-09-26T16:25:31.761Z,96598.36
2018-09-26T16:27:58.085Z,96595.52
2018-09-26T16:30:24.489Z,96593.66
2018-09-26T16:32:50.796Z,96594.83
2018-09-26T16:35:17.122Z,96595.34
2018-09-26T16:37:43.480Z,96596.66
2018-09-26T16:40:10.088Z,96602.56
2018-09-26T16:42:36.653Z,96595.98
2018-09-26T16:45:03.027Z,96601.84
2018-09-26T16:47:29.387Z,96602.69
2018-09-26T16:49:55.751Z,96609.92
2018-09-26T16:52:22.137Z,96618.63
2018-09-26T16:54:48.488Z,96620.97
2018-09-26T16:57:14.826Z,96624.63
2018-09-26T16:59:41.324Z,96627.84
2018-09-26T17:02:07.663Z,96619.65
2018-09-26T17:04:34.027Z,96627.33
2018-09-26T17:07:00.506Z,96634.78
2018-09-26T17:09:26.843Z,96629.67
2018-09-26T17:11:53.226Z,96625.58
2018-09-26T17:14:19.588Z,96638.63
2018-09-26T17:16:45.975Z,96636.70
2018-09-26T17:19:12.382Z,96639.64
2018-09-26T17:21:38.725Z,96635.00
2018-09-26T17:24:05.235Z,96638.71
2018-09-26T17:26:31.598Z,96627.91
2018-09-26T17:28:57.939Z,96630.03
2018-09-26T17:31:24.479Z,96628.83
2018-09-26T17:33:50.910Z,96630.55
2018-09-26T17:36:17.305Z,96633.20
2018-09-26T17:38:43.682Z,96637.48
2018-09-26T17:41:10.049Z,96641.34
2018-09-26T17:43:36.442Z,96641.80
2018-09-26T17:46:02.853Z,96640.63
2018-09-26T17:48:29.188Z,96653.88
2018-09-26T17:50:55.547Z,96655.71
2018-09-26T17:53:21.879Z,96649.81
2018-09-26T17:55:48.215Z,96640.33
2018-09-26T17:58:14.600Z,96625.39
2018-09-26T18:00:40.948Z,96656.25
2018-09-26T18:03:07.338Z,96659.48
2018-09-26T18:05:33.670Z,96664.38
2018-09-26T18:08:00.003Z,96665.40
2018-09-26T18:10:26.422Z,96663.72
2018-09-26T18:12:52.796Z,96656.80
2018-09-26T18:15:19.133Z,96663.03
2018-09-26T18:17:45.501Z,96662.13
2018-09-26T18:20:11.848Z,96656.69
2018-09-26T18:22:38.299Z,96659.88
2018-09-26T18:25:04.642Z,96661.13
2018-09-26T18:27:31.040Z,96654.64
2018-09-26T18:29:57.343Z,96651.46
2018-09-26T18:32:23.684Z,96641.65
2018-09-26T18:34:50.015Z,96638.02
2018-09-26T18:37:16.373Z,96644.59
2018-09-26T18:39:42.843Z,96641.41
2018-09-26T18:42:09.200Z,96643.03
2018-09-26T18:44:35.730Z,96637.95
2018-09-26T18:47:02.115Z,96638.20
2018-09-26T18:49:28.470Z,96647.66
2018-09-26T18:51:54.825Z,96641.31
2018-09-26T18:54:21.174Z,96639.92
2018-09-26T18:56:47.532Z,96636.18
2018-09-26T18:59:14.030Z,96633.99
2018-09-26T19:01:40.382Z,96645.63
2018-09-26T19:04:06.765Z,96650.34
2018-09-26T19:06:33.104Z,96652.92
2018-09-26T19:08:59.508Z,96650.48
2018-09-26T19:11:25.864Z,96650.55
2018-09-26T19:13:52.221Z,96652.95
2018-09-26T19:16:18.596Z,96654.11
2018-09-26T19:18:44.951Z,96647.71
2018-09-26T19:21:11.377Z,96657.72
2018-09-26T19:23:37.705Z,96657.55
2018-09-26T19:26:04.089Z,96648.89
2018-09-26T19:28:30.489Z,96660.31
2018-09-26T19:30:56.830Z,96663.00
2018-09-26T19:33:23.150Z,96663.09
2018-09-26T19:35:49.519Z,96658.97
2018-09-26T19:38:15.978Z,96660.78
2018-09-26T19:40:42.309Z,96649.43
2018-09-26T19:43:08.669Z,96654.70
2018-09-26T19:45:35.033Z,96659.06
2018-09-26T19:48:01.372Z,96655.75
2018-09-26T19:50:27.724Z,96656.95
2018-09-26T19:52:54.090Z,96662.38
2018-09-26T19:55:20.418Z,96660.21
2018-09-26T19:57:46.799Z,96658.48
2018-09-26T20:00:13.209Z,96660.34
2018-09-26T20:02:39.688Z,96662.02
2018-09-26T20:05:06.480Z,96664.19
2018-09-26T20:07:32.997Z,96663.06
2018-09-26T20:09:59.321Z,96657.17
2018-09-26T20:12:25.673Z,96661.52
2018-09-26T20:14:52.121Z,96648.94
2018-09-26T20:17:18.586Z,96649.88
2018-09-26T20:19:44.991Z,96652.42
2018-09-26T20:22:11.523Z,96653.36
2018-09-26T20:24:38.026Z,96652.60
2018-09-26T20:27:04.455Z,96656.45
2018-09-26T20:29:31.322Z,96652.75
2018-09-26T20:31:57.525Z,96646.36
2018-09-26T20:34:23.905Z,96649.98
2018-09-26T20:36:50.269Z,96653.11
2018-09-26T20:39:16.592Z,96652.25
2018-09-26T20:41:42.913Z,96652.41
2018-09-26T20:44:09.241Z,96650.23
2018-09-26T20:46:35.571Z,96650.67
2018-09-26T20:49:01.915Z,96652.45
2018-09-26T20:51:28.231Z,96649.52
2018-09-26T20:53:54.628Z,96645.30
2018-09-26T20:56:21.028Z,96646.66
2018-09-26T20:58:47.385Z,96643.72
2018-09-26T21:01:13.755Z,96641.28
2018-09-26T21:03:40.098Z,96647.35
2018-09-26T21:06:06.530Z,96641.83
2018-09-26T21:08:32.933Z,96636.82
2018-09-26T21:10:59.326Z,96639.03
2018-09-26T21:13:25.753Z,96646.78
2018-09-26T21:15:52.150Z,96649.37
2018-09-26T21:18:18.515Z,96644.76
2018-09-26T21:20:44.893Z,96639.02
2018-09-26T21:23:11.335Z,96644.02
2018-09-26T21:25:37.712Z,96651.73
2018-09-26T21:28:04.145Z,96653.52
2018-09-26T21:30:30.508Z,96649.73
2018-09-26T21:32:56.929Z,96651.52
2018-09-26T21:35:23.287Z,96652.45
2018-09-26T21:37:49.638Z,96652.53
2018-09-26T21:40:15.996Z,96658.62
2018-09-26T21:42:42.368Z,96662.41
2018-09-26T21:45:08.831Z,96663.79
2018-09-26T21:47:35.200Z,96660.56
2018-09-26T21:50:01.592Z,96658.24
2018-09-26T21:52:27.972Z,96658.00
2018-09-26T21:54:54.415Z,96654.20
2018-09-26T21:57:20.722Z,96651.29
2018-09-26T21:59:47.264Z,96652.73
2018-09-26T22:02:13.594Z,96653.62
2018-09-26T22:04:39.925Z,96646.42
2018-09-26T22:07:06.300Z,96647.45
2018-09-26T22:09:32.645Z,96648.27
2018-09-26T22:11:59.024Z,96652.53
2018-09-26T22:14:25.356Z,96649.55
2018-09-26T22:16:51.719Z,96644.05
2018-09-26T22:19:18.075Z,96639.41
2018-09-26T22:21:44.541Z,96637.34
2018-09-26T22:24:10.916Z,96642.14
2018-09-26T22:26:37.332Z,96641.32
2018-09-26T22:29:03.796Z,96644.41
2018-09-26T22:31:30.140Z,96644.08
2018-09-26T22:33:56.524Z,96642.59
2018-09-26T22:36:22.862Z,96637.81
2018-09-26T22:38:49.254Z,96639.05
2018-09-26T22:41:15.585Z,96637.79
2018-09-26T22:43:41.973Z,96634.20
2018-09-26T22:46:08.345Z,96637.65
2018-09-26T22:48:34.786Z,96639.37
2018-09-26T22:51:01.157Z,96640.63
2018-09-26T22:53:27.516Z,96640.09
2018-09-26T22:55:53.926Z,96635.58
2018-09-26T22:58:20.282Z,96637.48
2018-09-26T23:00:46.633Z,96643.03
2018-09-26T23:03:13.044Z,96636.20
2018-09-26T23:05:39.411Z,96634.05
2018-09-26T23:08:05.801Z,96638.38
2018-09-26T23:10:32.176Z,96628.73
2018-09-26T23:12:58.843Z,96629.66
2018-09-26T23:15:25.182Z,96636.97
2018-09-26T23:17:51.611Z,96630.53
2018-09-26T23:20:17.964Z,96628.39
2018-09-26T23:22:44.378Z,96627.68
2018-09-26T23:25:10.727Z,96618.42
2018-09-26T23:27:37.057Z,96618.39
2018-09-26T23:30:03.498Z,96622.68
2018-09-26T23:32:29.938Z,96623.95
2018-09-26T23:34:56.290Z,96620.54
2018-09-26T23:37:22.655Z,96630.98
2018-09-26T23:39:49.060Z,96622.45
2018-09-26T23:42:15.466Z,96619.09
2018-09-26T23:44:42.037Z,96614.75
2018-09-26T23:47:08.388Z,96609.95
2018-09-26T23:49:34.719Z,96611.36
2018-09-26T23:52:01.093Z,96606.47
2018-09-26T23:54:27.467Z,96608.21
2018-09-26T23:56:53.784Z,96600.06
2018-09-26T23:59:20.152Z,96588.41
